Time;durP1;ratioP1;P1;durP2;ratioP2;P2;SDS_P1;SDS_P2;PMS_P1;PMS_P2;Temp;Humidity;BMP_temperature;BMP_pressure;BME280_temperature;BME280_humidity;BME280_pressure;Samples;Min_cycle;Max_cycle;Signal;HPM_P1;HPM_P2
2020/12/05 00:01:13;;;;;;;5.45;2.90;;;;;;;7.04;74.50;97558.66;1749230;82;21160;-68
2020/12/05 00:03:41;;;;;;;4.45;2.87;;;;;;;7.01;74.36;97566.65;1749097;81;21165;-68
2020/12/05 00:06:09;;;;;;;6.53;3.52;;;;;;;7.04;75.00;97569.78;1787680;80;21160;-70
2020/12/05 00:08:37;;;;;;;6.80;3.05;;;;;;;7.07;74.78;97570.02;1749494;82;21216;-68
2020/12/05 00:11:05;;;;;;;6.75;3.35;;;;;;;7.06;74.81;97583.39;1786758;79;21148;-67
2020/12/05 00:13:32;;;;;;;5.78;2.83;;;;;;;7.05;75.21;97579.17;1749009;82;21145;-68
2020/12/05 00:16:00;;;;;;;7.60;3.50;;;;;;;7.08;74.83;97569.08;1749270;82;21156;-68
2020/12/05 00:18:29;;;;;;;7.40;3.85;;;;;;;7.12;74.93;97566.08;1756388;80;21151;-68
2020/12/05 00:20:57;;;;;;;8.50;3.92;;;;;;;7.11;75.09;97555.42;1749196;82;21204;-67
2020/12/05 00:23:25;;;;;;;6.47;2.92;;;;;;;7.06;75.42;97546.43;1786799;80;21175;-67
2020/12/05 00:25:53;;;;;;;6.55;3.52;;;;;;;7.04;75.55;97573.66;1749508;82;21232;-68
2020/12/05 00:28:21;;;;;;;11.08;4.28;;;;;;;7.07;75.35;97586.80;1786635;80;21171;-67
2020/12/05 00:30:50;;;;;;;5.10;3.27;;;;;;;7.20;74.95;97589.16;1749103;82;21187;-67
2020/12/05 00:33:18;;;;;;;6.85;3.92;;;;;;;7.27;74.87;97601.42;1749156;82;21171;-65
2020/12/05 00:35:45;;;;;;;6.75;3.50;;;;;;;7.28;74.97;97594.47;1749148;82;21152;-66
2020/12/05 00:38:14;;;;;;;5.12;3.17;;;;;;;7.22;75.25;97582.09;1786623;80;21159;-65
2020/12/05 00:40:42;;;;;;;9.88;3.77;;;;;;;7.15;75.54;97597.30;1749037;82;21267;-67
2020/12/05 00:43:10;;;;;;;4.85;2.77;;;;;;;7.12;75.51;97603.52;1786369;80;21192;-67
2020/12/05 00:45:38;;;;;;;8.18;3.02;;;;;;;7.10;75.28;97605.89;1749302;82;21553;-65
2020/12/05 00:48:06;;;;;;;5.33;3.20;;;;;;;7.08;75.66;97621.50;1786691;80;21162;-65
2020/12/05 00:50:34;;;;;;;6.65;3.50;;;;;;;7.06;75.30;97623.88;1749216;82;21174;-65
2020/12/05 00:53:03;;;;;;;4.55;2.62;;;;;;;7.00;75.46;97632.16;1786498;80;21191;-65
2020/12/05 00:55:32;;;;;;;10.15;5.10;;;;;;;6.95;75.30;97640.75;1749037;82;21557;-65
2020/12/05 00:57:59;;;;;;;7.53;3.90;;;;;;;6.85;74.91;97641.97;1749034;82;21156;-65
2020/12/05 01:00:28;;;;;;;6.25;3.47;;;;;;;6.73;74.94;97646.06;1749285;82;21238;-68
2020/12/05 01:02:56;;;;;;;8.63;3.72;;;;;;;6.61;75.00;97651.76;1786933;79;21147;-68
2020/12/05 01:05:23;;;;;;;9.95;5.10;;;;;;;6.38;76.68;97653.60;1749555;82;21165;-65
2020/12/05 01:07:51;;;;;;;9.03;4.65;;;;;;;6.16;77.29;97655.81;1786551;79;21132;-65
2020/12/05 01:10:19;;;;;;;8.93;5.10;;;;;;;6.04;77.80;97647.77;1749117;82;21128;-65
2020/12/05 01:12:47;;;;;;;9.73;3.77;;;;;;;5.83;79.22;97648.63;1786650;80;21694;-65
2020/12/05 01:15:15;;;;;;;9.45;4.03;;;;;;;5.80;77.74;97650.95;1749068;82;21176;-67
2020/12/05 01:17:43;;;;;;;7.80;4.20;;;;;;;5.60;79.60;97647.36;1749243;82;21930;-65
2020/12/05 01:20:11;;;;;;;11.10;4.92;;;;;;;5.61;78.67;97651.58;1786552;80;21139;-65
2020/12/05 01:22:38;;;;;;;8.48;4.15;;;;;;;5.52;80.11;97645.87;1749078;81;21112;-64
2020/12/05 01:25:08;;;;;;;9.95;4.75;;;;;;;5.57;80.92;97649.36;1786407;80;21227;-68
2020/12/05 01:27:37;;;;;;;11.12;3.50;;;;;;;5.58;81.34;97640.70;1749112;82;21156;-65
2020/12/05 01:30:05;;;;;;;4.40;2.55;;;;;;;5.55;79.72;97643.05;1786396;80;21155;-65
2020/12/05 01:32:33;;;;;;;6.67;2.98;;;;;;;5.60;81.84;97638.34;1749004;82;21616;-66
2020/12/05 01:35:01;;;;;;;4.58;3.33;;;;;;;5.92;81.61;97648.73;1748888;82;21431;-67
2020/12/05 01:37:29;;;;;;;4.83;2.70;;;;;;;5.94;80.71;97643.47;1749098;82;21555;-65
2020/12/05 01:39:58;;;;;;;4.15;2.50;;;;;;;5.96;79.90;97653.17;1749114;82;21207;-65
2020/12/05 01:42:26;;;;;;;6.97;3.37;;;;;;;5.95;79.75;97649.77;1749095;82;21145;-67
2020/12/05 01:44:55;;;;;;;9.73;3.95;;;;;;;5.95;80.53;97661.37;1792502;80;21210;-68
2020/12/05 01:47:27;;;;;;;3.95;2.50;;;;;;;5.95;79.75;97656.22;1755096;82;21121;-67
2020/12/05 01:49:58;;;;;;;5.33;2.75;;;;;;;5.92;79.36;97646.16;1754698;82;21569;-67
2020/12/05 01:52:26;;;;;;;7.28;4.00;;;;;;;5.89;79.82;97650.27;1755535;82;21175;-69
2020/12/05 01:54:54;;;;;;;5.33;2.85;;;;;;;5.92;81.00;97638.89;1755649;82;21163;-67
2020/12/05 01:57:22;;;;;;;6.15;2.95;;;;;;;6.00;81.13;97634.77;1755566;81;21584;-68
2020/12/05 01:59:51;;;;;;;6.08;3.35;;;;;;;6.02;80.21;97639.34;1755350;81;21159;-69
2020/12/05 02:02:19;;;;;;;7.05;3.08;;;;;;;6.00;80.09;97642.50;1755042;82;21620;-69
2020/12/05 02:08:11;;;;;;;6.83;3.45;;;;;;;5.87;79.82;97640.56;1688324;85;21144;-69
2020/12/05 02:10:45;;;;;;;6.17;2.77;;;;;;;5.84;79.50;97639.93;1717405;82;21139;-67
2020/12/05 02:13:30;;;;;;;6.60;3.40;;;;;;;5.73;79.87;97641.61;1756171;82;21136;-68
2020/12/05 02:15:59;;;;;;;8.05;4.70;;;;;;;5.63;79.96;97651.00;1756116;80;21151;-68
2020/12/05 02:18:29;;;;;;;7.33;3.83;;;;;;;5.52;80.37;97654.06;1756221;82;21219;-68
2020/12/05 02:21:02;;;;;;;8.18;4.58;;;;;;;5.46;80.46;97663.53;1755849;82;21171;-68
2020/12/05 02:23:31;;;;;;;4.40;3.25;;;;;;;5.35;80.33;97668.70;1756588;81;21166;-68
2020/12/05 02:29:04;;;;;;;10.40;3.60;;;;;;;5.24;80.73;97666.48;1756286;81;21132;-67
2020/12/05 02:31:34;;;;;;;6.85;3.65;;;;;;;5.19;81.50;97671.16;1756324;81;21567;-67
2020/12/05 02:34:02;;;;;;;5.80;3.65;;;;;;;5.20;80.92;97662.97;1756330;82;21223;-68
2020/12/05 02:36:35;;;;;;;7.97;3.33;;;;;;;5.19;80.87;97657.46;1756277;82;21164;-67
2020/12/05 02:39:10;;;;;;;7.35;4.35;;;;;;;5.16;80.77;97659.81;1756257;82;21155;-67
2020/12/05 02:41:40;;;;;;;7.05;3.92;;;;;;;5.13;81.03;97656.19;1756261;82;21132;-66
2020/12/05 02:44:08;;;;;;;8.15;4.12;;;;;;;5.08;81.40;97657.00;1756218;82;21671;-66
2020/12/05 02:46:36;;;;;;;9.80;4.95;;;;;;;5.03;81.12;97650.55;1756356;82;21167;-65
2020/12/05 02:49:06;;;;;;;16.35;5.97;;;;;;;4.99;81.16;97654.28;1756295;82;21600;-65
2020/12/05 02:51:34;;;;;;;12.15;6.22;;;;;;;4.90;81.91;97659.67;1756421;82;21132;-65
2020/12/05 02:54:02;;;;;;;8.38;4.75;;;;;;;4.83;81.83;97646.89;1756459;82;21195;-65
2020/12/05 02:56:32;;;;;;;14.60;6.95;;;;;;;4.76;81.81;97651.69;1756719;82;21172;-65
2020/12/05 02:59:00;;;;;;;10.20;4.97;;;;;;;4.68;82.08;97650.61;1756361;82;21195;-65
2020/12/05 03:01:28;;;;;;;8.48;5.15;;;;;;;4.66;81.17;97650.74;1756901;82;21164;-65
2020/12/05 03:03:57;;;;;;;13.28;6.58;;;;;;;4.62;81.12;97654.47;1758171;82;21222;-65
2020/12/05 03:06:25;;;;;;;10.72;4.90;;;;;;;4.56;82.45;97648.94;1758372;82;21167;-65
2020/12/05 03:08:53;;;;;;;9.60;4.42;;;;;;;4.52;81.75;97643.67;1758274;82;21616;-65
2020/12/05 03:11:21;;;;;;;10.82;5.97;;;;;;;4.43;82.62;97651.61;1756292;82;21207;-65
2020/12/05 03:13:49;;;;;;;12.63;6.37;;;;;;;4.40;84.56;97649.73;1756312;82;21152;-65
2020/12/05 03:16:17;;;;;;;11.15;4.97;;;;;;;4.36;83.10;97649.61;1756145;82;21199;-65
2020/12/05 03:18:48;;;;;;;8.90;5.53;;;;;;;4.29;83.73;97648.75;1756663;82;21160;-66
2020/12/05 03:21:16;;;;;;;9.93;5.45;;;;;;;4.26;83.66;97646.87;1756860;82;21155;-65
2020/12/05 03:23:47;;;;;;;8.45;4.80;;;;;;;4.18;84.95;97651.28;1756591;82;21163;-65
2020/12/05 03:26:16;;;;;;;9.73;5.28;;;;;;;4.13;85.01;97651.24;1757019;82;21159;-65
2020/12/05 03:28:45;;;;;;;9.38;5.42;;;;;;;4.07;83.38;97651.23;1757672;81;21600;-66
2020/12/05 03:31:26;;;;;;;10.98;4.40;;;;;;;4.03;82.73;97637.42;1757347;82;21158;-65
2020/12/05 03:33:44;;;;;;;7.15;3.92;;;;;;;3.97;82.41;97638.67;1756232;81;21615;-66
2020/12/05 03:36:11;;;;;;;10.60;5.95;;;;;;;3.92;83.17;97639.95;1756207;82;21608;-65
2020/12/05 03:38:46;;;;;;;8.50;5.05;;;;;;;3.84;83.27;97627.66;1756337;82;21194;-67
2020/12/05 03:41:11;;;;;;;9.03;4.42;;;;;;;3.76;84.66;97637.65;1756654;81;21183;-67
2020/12/05 03:43:39;;;;;;;9.38;5.37;;;;;;;3.70;83.55;97631.64;1756372;82;21191;-66
2020/12/05 03:46:07;;;;;;;7.25;4.25;;;;;;;3.67;83.47;97651.13;1756474;82;21151;-65
2020/12/05 03:48:35;;;;;;;10.13;4.10;;;;;;;3.61;83.15;97645.15;1756370;82;21207;-66
2020/12/05 03:51:03;;;;;;;11.63;4.62;;;;;;;3.56;83.10;97649.31;1756439;82;21151;-66
2020/12/05 03:53:31;;;;;;;10.43;4.92;;;;;;;3.53;83.05;97649.99;1756460;82;21147;-65
2020/12/05 03:55:58;;;;;;;14.55;6.17;;;;;;;3.50;82.75;97651.01;1756627;81;21189;-69
2020/12/05 03:58:26;;;;;;;9.83;4.67;;;;;;;3.48;83.66;97650.31;1756782;82;21147;-66
2020/12/05 04:00:54;;;;;;;9.23;4.50;;;;;;;3.47;82.14;97657.64;1756529;82;21187;-66
2020/12/05 04:03:22;;;;;;;10.30;4.62;;;;;;;3.47;83.67;97669.20;1756295;82;21168;-66
2020/12/05 04:05:56;;;;;;;7.17;3.77;;;;;;;3.46;83.00;97675.28;1754546;80;21197;-65
2020/12/05 04:08:24;;;;;;;11.55;3.80;;;;;;;3.46;82.76;97677.02;1740077;82;21174;-65
2020/12/05 04:10:53;;;;;;;10.80;4.85;;;;;;;3.45;82.45;97680.51;1756470;82;21158;-65
2020/12/05 04:13:21;;;;;;;8.60;4.35;;;;;;;3.44;83.33;97678.40;1756148;82;21114;-65
2020/12/05 04:15:48;;;;;;;6.45;4.10;;;;;;;3.44;83.05;97675.83;1756182;81;21618;-65
2020/12/05 04:18:18;;;;;;;12.33;4.37;;;;;;;3.48;84.46;97684.97;1756651;82;21142;-65
2020/12/05 04:20:46;;;;;;;9.40;5.22;;;;;;;3.51;84.21;97690.34;1756285;82;21410;-65
2020/12/05 04:23:14;;;;;;;8.50;4.33;;;;;;;3.54;85.37;97681.17;1756255;81;21150;-65
2020/12/05 04:25:45;;;;;;;8.78;4.45;;;;;;;3.57;86.49;97685.63;1756204;82;21233;-65
2020/12/05 04:28:13;;;;;;;8.08;4.92;;;;;;;3.61;85.73;97684.48;1756328;81;21162;-65
2020/12/05 04:30:41;;;;;;;10.75;5.03;;;;;;;3.63;85.40;97691.61;1756146;82;21567;-65
2020/12/05 04:33:09;;;;;;;9.65;5.08;;;;;;;3.68;85.34;97697.71;1755986;81;21170;-66
2020/12/05 04:35:39;;;;;;;12.68;4.47;;;;;;;3.68;85.34;97689.55;1756120;82;21162;-67
2020/12/05 04:38:07;;;;;;;7.80;4.87;;;;;;;3.70;85.18;97689.42;1756969;81;21181;-67
2020/12/05 04:40:36;;;;;;;7.75;4.72;;;;;;;3.67;86.44;97695.60;1756739;82;21320;-67
2020/12/05 04:43:04;;;;;;;9.50;4.25;;;;;;;3.67;85.84;97702.48;1756526;81;21146;-65
2020/12/05 04:45:32;;;;;;;10.28;6.20;;;;;;;3.66;85.43;97708.53;1756436;82;21555;-65
2020/12/05 04:48:03;;;;;;;8.15;5.33;;;;;;;3.65;85.60;97712.88;1756437;82;21174;-65
2020/12/05 04:50:34;;;;;;;9.00;5.67;;;;;;;3.64;85.44;97715.08;1755994;81;21234;-67
2020/12/05 04:53:10;;;;;;;9.88;4.65;;;;;;;3.60;86.44;97708.97;1756156;81;21170;-66
2020/12/05 04:55:43;;;;;;;8.03;4.85;;;;;;;3.59;86.59;97708.61;1756375;82;21217;-65
2020/12/05 04:58:22;;;;;;;7.15;4.37;;;;;;;3.61;86.84;97692.65;1755914;81;21635;-65
2020/12/05 05:00:59;;;;;;;9.28;5.62;;;;;;;3.59;87.78;97693.20;1755829;82;21143;-67
2020/12/05 05:03:28;;;;;;;9.23;5.05;;;;;;;3.66;87.85;97699.09;1756048;82;21163;-67
2020/12/05 05:05:58;;;;;;;8.23;4.37;;;;;;;3.73;88.20;97702.90;1762593;80;21264;-67
2020/12/05 05:08:27;;;;;;;8.30;5.20;;;;;;;3.78;87.62;97703.84;1764226;81;21239;-66
2020/12/05 05:11:11;;;;;;;5.90;4.12;;;;;;;3.83;87.87;97710.77;1764446;80;21587;-65
2020/12/05 05:14:05;;;;;;;9.78;4.75;;;;;;;3.86;87.37;97716.14;1764494;81;21149;-64
2020/12/05 05:16:32;;;;;;;5.80;3.45;;;;;;;3.87;87.53;97707.06;1764538;80;21162;-67
2020/12/05 05:19:24;;;;;;;7.47;3.80;;;;;;;3.89;87.47;97711.61;1764263;80;21269;-67
2020/12/05 05:21:53;;;;;;;8.25;4.15;;;;;;;3.93;87.30;97706.61;1734226;83;21135;-66
2020/12/05 05:24:22;;;;;;;6.50;4.12;;;;;;;3.97;86.80;97713.67;1748188;82;21117;-64
2020/12/05 05:27:06;;;;;;;7.62;5.42;;;;;;;4.00;86.34;97714.73;1748143;82;21159;-64
2020/12/05 05:29:39;;;;;;;10.95;5.33;;;;;;;4.01;86.18;97718.45;1725965;83;21168;-72
2020/12/05 05:32:14;;;;;;;9.95;5.00;;;;;;;3.96;85.96;97719.73;1726088;83;21179;-66
2020/12/05 05:34:40;;;;;;;11.80;4.58;;;;;;;3.93;85.92;97722.03;1725874;83;21216;-65
2020/12/05 05:37:20;;;;;;;6.85;4.00;;;;;;;3.95;85.60;97721.47;1725756;83;21167;-65
2020/12/05 05:39:53;;;;;;;9.33;5.05;;;;;;;3.97;85.49;97723.95;1725643;83;21183;-68
2020/12/05 05:42:48;;;;;;;8.15;5.10;;;;;;;3.97;85.23;97721.37;1725565;83;21226;-66
2020/12/05 05:45:22;;;;;;;9.50;5.05;;;;;;;3.93;85.48;97722.03;1648725;87;21229;-65
2020/12/05 05:47:55;;;;;;;7.72;4.45;;;;;;;3.93;85.99;97725.88;1649818;86;21664;-66
2020/12/05 05:50:30;;;;;;;10.20;5.40;;;;;;;4.10;88.12;97728.56;1649347;86;21356;-65
2020/12/05 05:53:08;;;;;;;8.83;4.97;;;;;;;4.12;86.89;97729.29;1649826;86;21166;-66
2020/12/05 05:55:46;;;;;;;8.90;4.45;;;;;;;4.11;86.60;97725.89;1649918;86;21135;-66
2020/12/05 05:58:18;;;;;;;5.95;3.62;;;;;;;4.25;88.04;97723.61;1649888;87;21230;-65
2020/12/05 06:00:53;;;;;;;6.20;2.95;;;;;;;4.30;87.16;97719.80;1650292;87;21543;-65
2020/12/05 06:03:27;;;;;;;;;;;;;;;4.58;87.34;97722.95;1652650;87;21233;-65
2020/12/05 06:05:59;;;;;;;8.10;3.50;;;;;;;4.80;87.04;97712.73;1650186;87;20201;-66
2020/12/05 06:08:29;;;;;;;9.25;4.45;;;;;;;4.89;86.44;97712.06;1650367;87;21617;-66
2020/12/05 06:11:03;;;;;;;7.40;4.72;;;;;;;4.79;85.45;97718.80;1649873;87;21302;-67
2020/12/05 06:13:32;;;;;;;6.90;3.70;;;;;;;4.78;85.32;97722.33;1649918;87;21635;-67
2020/12/05 06:18:57;;;;;;;11.60;5.55;;;;;;;4.79;85.25;97732.95;1619548;88;21829;-68
2020/12/05 06:21:31;;;;;;;9.98;5.40;;;;;;;4.72;84.31;97730.47;1640472;86;21215;-67
2020/12/05 06:24:07;;;;;;;12.98;5.30;;;;;;;4.67;84.13;97735.95;1640678;87;21588;-67
2020/12/05 06:26:38;;;;;;;10.05;5.87;;;;;;;4.62;83.67;97740.62;1640721;87;21163;-66
2020/12/05 06:29:08;;;;;;;10.48;5.45;;;;;;;4.50;83.29;97740.69;1640639;86;21203;-67
2020/12/05 06:31:46;;;;;;;9.95;5.30;;;;;;;4.35;83.47;97745.64;1640670;87;21171;-67
2020/12/05 06:37:41;;;;;;;13.28;5.85;;;;;;;4.12;84.34;97751.13;1597383;89;21613;-66
2020/12/05 06:40:10;;;;;;;12.15;7.10;;;;;;;4.01;84.90;97751.86;1595587;90;21294;-67
2020/12/05 06:42:40;;;;;;;13.15;6.42;;;;;;;3.96;85.56;97749.27;1625740;87;21227;-66
2020/12/05 06:45:27;;;;;;;10.05;5.22;;;;;;;3.99;85.06;97760.16;1640770;87;21232;-67
2020/12/05 06:48:31;;;;;;;9.48;5.45;;;;;;;3.99;85.17;97764.01;1640479;87;21179;-67
2020/12/05 06:50:59;;;;;;;9.28;4.62;;;;;;;4.03;85.22;97757.73;1647342;86;21199;-67
2020/12/05 06:53:29;;;;;;;7.85;4.20;;;;;;;4.28;88.09;97752.95;1641271;87;21198;-66
2020/12/05 06:55:58;;;;;;;6.47;3.50;;;;;;;4.42;88.26;97754.55;1641215;87;21167;-67
2020/12/05 06:58:29;;;;;;;8.50;4.45;;;;;;;4.54;87.64;97757.53;1641434;87;21617;-67
2020/12/05 07:00:58;;;;;;;6.30;4.08;;;;;;;4.69;87.62;97764.14;1641537;87;21196;-68
2020/12/05 07:03:31;;;;;;;6.08;3.47;;;;;;;4.82;87.20;97769.22;1640899;87;21257;-67
2020/12/05 07:05:59;;;;;;;7.85;4.53;;;;;;;4.91;86.37;97778.36;1640933;87;21656;-69
2020/12/05 07:08:41;;;;;;;8.40;4.90;;;;;;;5.02;86.08;97779.69;1669681;86;21189;-65
2020/12/05 07:11:17;;;;;;;13.15;6.15;;;;;;;5.09;84.14;97784.76;1669511;85;21183;-71
2020/12/05 07:13:51;;;;;;;10.72;4.67;;;;;;;5.10;83.79;97790.70;1669835;86;21180;-68
2020/12/05 07:16:29;;;;;;;14.20;6.75;;;;;;;5.10;83.49;97795.84;1669939;86;21212;-70
2020/12/05 07:19:01;;;;;;;9.50;5.45;;;;;;;5.06;83.50;97793.97;1669987;86;21184;-68
2020/12/05 07:21:32;;;;;;;13.75;6.35;;;;;;;5.02;84.04;97787.41;1669758;85;21149;-68
2020/12/05 07:24:00;;;;;;;11.00;6.20;;;;;;;5.06;83.81;97792.68;1670170;85;21156;-67
2020/12/05 07:26:28;;;;;;;13.10;6.75;;;;;;;5.07;83.83;97793.50;1670132;85;21153;-69
2020/12/05 07:28:58;;;;;;;13.30;6.22;;;;;;;5.10;83.83;97794.09;1670048;86;21171;-72
2020/12/05 07:31:30;;;;;;;13.78;7.20;;;;;;;5.15;83.99;97789.44;1670117;86;21224;-68
2020/12/05 07:33:58;;;;;;;14.15;6.08;;;;;;;5.23;84.37;97793.55;1670067;86;21164;-69
2020/12/05 07:36:30;;;;;;;12.05;5.90;;;;;;;5.35;84.07;97802.59;1670058;86;21200;-68
2020/12/05 07:38:57;;;;;;;15.00;7.12;;;;;;;5.46;84.18;97811.16;1668991;85;21133;-67
2020/12/05 07:41:26;;;;;;;12.20;6.78;;;;;;;5.57;84.41;97798.75;1669932;85;21197;-68
2020/12/05 07:43:56;;;;;;;10.90;6.75;;;;;;;5.68;84.16;97807.31;1670052;85;21184;-70
2020/12/05 07:46:24;;;;;;;14.15;7.70;;;;;;;5.84;84.17;97811.30;1669984;86;21192;-68
2020/12/05 07:48:55;;;;;;;8.28;5.50;;;;;;;6.00;83.74;97815.66;1670592;85;21149;-68
2020/12/05 07:51:22;;;;;;;8.28;5.22;;;;;;;6.16;83.07;97812.27;1682085;84;21164;-67
2020/12/05 07:53:50;;;;;;;12.55;5.90;;;;;;;6.32;82.29;97813.17;1681814;85;21217;-67
2020/12/05 07:56:21;;;;;;;9.63;4.92;;;;;;;6.46;81.69;97809.86;1681696;85;21201;-67
2020/12/05 07:58:54;;;;;;;5.92;4.15;;;;;;;6.58;81.22;97811.48;1681619;84;21165;-67
2020/12/05 08:02:04;;;;;;;14.43;4.70;;;;;;;6.71;80.84;97815.20;1681583;85;21172;-66
2020/12/05 08:04:48;;;;;;;8.05;4.37;;;;;;;6.86;80.64;97813.14;1680487;85;21342;-66
2020/12/05 08:07:44;;;;;;;13.98;6.28;;;;;;;7.08;79.39;97813.87;1680487;84;21189;-68
2020/12/05 08:10:16;;;;;;;5.90;3.58;;;;;;;7.27;78.83;97814.97;1680682;85;21170;-66
2020/12/05 08:13:06;;;;;;;8.90;5.00;;;;;;;7.52;78.25;97815.87;1680564;85;21185;-66
2020/12/05 08:15:34;;;;;;;6.67;4.75;;;;;;;7.81;78.75;97815.56;1679915;85;21174;-66
2020/12/05 08:18:03;;;;;;;9.63;4.20;;;;;;;8.16;76.67;97819.04;1680661;85;21185;-70
2020/12/05 08:20:31;;;;;;;8.53;4.65;;;;;;;8.56;76.18;97812.55;1680792;85;21259;-70
2020/12/05 08:23:00;;;;;;;6.20;4.28;;;;;;;8.89;73.94;97825.14;1680973;84;21228;-68
2020/12/05 08:25:28;;;;;;;8.38;3.92;;;;;;;9.20;72.63;97822.41;1680837;85;21165;-70
2020/12/05 08:27:56;;;;;;;8.65;4.35;;;;;;;9.61;71.33;97831.14;1659614;85;21224;-70
2020/12/05 08:30:26;;;;;;;8.75;3.92;;;;;;;9.95;70.96;97821.10;1680368;85;21181;-70
2020/12/05 08:33:03;;;;;;;7.40;4.30;;;;;;;10.32;69.40;97821.92;1680182;85;21185;-70
2020/12/05 08:35:33;;;;;;;8.70;4.50;;;;;;;10.72;71.67;97826.75;1680221;85;21736;-70
2020/12/05 08:38:03;;;;;;;9.10;4.55;;;;;;;11.10;67.88;97821.75;1680376;85;22233;-73
2020/12/05 08:40:31;;;;;;;15.75;7.37;;;;;;;11.43;66.10;97816.34;1680735;85;21189;-71
2020/12/05 08:42:59;;;;;;;12.30;5.87;;;;;;;11.45;65.71;97828.69;1680742;85;21360;-71
2020/12/05 08:45:27;;;;;;;12.20;5.50;;;;;;;11.74;64.74;97829.75;1680816;85;21181;-72
2020/12/05 08:47:55;;;;;;;11.35;4.80;;;;;;;12.11;64.51;97832.06;1680814;85;21177;-70
2020/12/05 08:50:35;;;;;;;9.88;6.05;;;;;;;12.24;61.80;97832.45;1680640;84;21291;-73
2020/12/05 08:53:03;;;;;;;11.05;4.87;;;;;;;12.51;59.88;97835.33;1680255;85;21198;-72
2020/12/05 08:55:32;;;;;;;8.15;4.40;;;;;;;12.49;59.94;97825.56;1680637;85;21172;-71
2020/12/05 08:58:03;;;;;;;8.28;4.67;;;;;;;12.91;59.46;97826.80;1680626;84;21181;-72
2020/12/05 09:00:36;;;;;;;7.80;4.47;;;;;;;13.23;59.76;97823.76;1680432;84;21189;-76
2020/12/05 09:03:22;;;;;;;10.55;5.55;;;;;;;13.44;57.41;97830.28;1675580;84;21162;-72
2020/12/05 09:05:51;;;;;;;17.60;7.78;;;;;;;13.84;57.33;97829.44;1668166;85;21178;-74
2020/12/05 09:08:22;;;;;;;11.83;5.97;;;;;;;13.19;57.17;97825.58;1668246;85;21194;-72
2020/12/05 09:10:52;;;;;;;8.90;4.75;;;;;;;13.30;56.89;97817.42;1667726;86;21201;-71
2020/12/05 09:13:20;;;;;;;9.63;4.72;;;;;;;13.93;57.05;97819.31;1667667;85;21182;-72
2020/12/05 09:16:14;;;;;;;7.85;4.92;;;;;;;13.65;55.99;97817.56;1667605;85;21610;-75
2020/12/05 09:18:47;;;;;;;9.58;5.62;;;;;;;14.11;55.35;97809.45;1727736;82;21126;-72
2020/12/05 09:21:20;;;;;;;7.87;4.20;;;;;;;13.54;56.57;97809.56;1727637;82;21130;-72
2020/12/05 09:24:00;;;;;;;7.08;4.37;;;;;;;13.69;55.68;97800.59;1727779;82;21173;-73
2020/12/05 09:26:29;;;;;;;11.28;4.83;;;;;;;13.53;56.17;97805.34;1727916;82;21110;-73
2020/12/05 09:28:57;;;;;;;8.05;3.83;;;;;;;14.03;55.40;97810.78;1728092;82;21174;-72
2020/12/05 09:31:25;;;;;;;7.60;4.33;;;;;;;14.19;54.50;97802.41;1728209;82;21170;-72
2020/12/05 09:33:53;;;;;;;9.38;4.90;;;;;;;13.78;55.37;97800.40;1727979;82;21186;-72
2020/12/05 09:36:20;;;;;;;9.05;5.05;;;;;;;13.98;55.05;97804.75;1725448;82;21361;-72
2020/12/05 09:38:49;;;;;;;10.68;5.17;;;;;;;14.54;53.81;97797.22;1728119;82;21170;-71
2020/12/05 09:41:17;;;;;;;7.35;4.15;;;;;;;14.42;53.95;97805.12;1727977;82;21154;-75
2020/12/05 09:43:46;;;;;;;8.25;4.53;;;;;;;14.32;53.90;97800.55;1728456;82;21149;-71
2020/12/05 09:46:14;;;;;;;9.73;4.55;;;;;;;14.17;54.88;97791.30;1728399;82;21177;-72
2020/12/05 09:48:42;;;;;;;11.05;5.55;;;;;;;14.20;54.59;97796.19;1728024;82;21218;-72
2020/12/05 09:51:09;;;;;;;9.45;4.58;;;;;;;14.36;55.19;97790.63;1728146;82;21174;-69
2020/12/05 09:53:37;;;;;;;8.25;4.83;;;;;;;14.22;54.54;97799.95;1727996;82;21692;-67
2020/12/05 09:56:05;;;;;;;10.32;4.90;;;;;;;13.79;55.94;97798.12;1727980;82;21565;-77
2020/12/05 09:58:33;;;;;;;9.38;4.87;;;;;;;14.23;55.14;97791.95;1728083;82;21153;-67
2020/12/05 10:01:02;;;;;;;7.80;4.95;;;;;;;14.25;54.93;97793.06;1728545;82;21146;-67
2020/12/05 10:03:30;;;;;;;7.60;4.75;;;;;;;13.45;56.83;97792.31;1728062;82;21126;-70
2020/12/05 10:06:01;;;;;;;8.18;4.33;;;;;;;13.57;57.05;97788.39;1727944;82;21157;-67
2020/12/05 10:08:29;;;;;;;10.98;4.42;;;;;;;13.51;57.23;97785.12;1727907;82;21153;-67
2020/12/05 10:10:57;;;;;;;9.03;4.17;;;;;;;13.43;57.54;97783.82;1727560;82;21126;-67
2020/12/05 10:13:26;;;;;;;9.38;4.80;;;;;;;13.15;58.43;97781.25;1727928;82;21158;-69
2020/12/05 10:15:54;;;;;;;9.70;4.70;;;;;;;13.13;58.65;97779.27;1728367;82;21142;-67
2020/12/05 10:18:24;;;;;;;9.43;4.67;;;;;;;12.92;59.17;97777.11;1734334;82;21169;-67
2020/12/05 10:20:53;;;;;;;11.10;4.95;;;;;;;13.20;58.42;97770.64;1735721;82;21161;-67
2020/12/05 10:23:21;;;;;;;12.60;4.60;;;;;;;13.33;58.07;97776.67;1735769;82;21149;-67
2020/12/05 10:25:49;;;;;;;9.48;5.80;;;;;;;13.47;57.76;97774.69;1735878;82;21193;-67
2020/12/05 10:28:17;;;;;;;9.68;4.17;;;;;;;13.61;57.76;97774.52;1735770;82;21594;-67
2020/12/05 10:30:45;;;;;;;9.50;4.55;;;;;;;13.63;57.42;97775.97;1735622;82;21215;-69
2020/12/05 10:33:13;;;;;;;7.75;4.50;;;;;;;14.00;56.51;97779.31;1735751;82;21157;-67
2020/12/05 10:35:41;;;;;;;8.30;4.00;;;;;;;14.09;56.23;97773.55;1735832;82;21579;-67
2020/12/05 10:38:09;;;;;;;7.67;3.80;;;;;;;14.18;55.80;97779.06;1735705;82;21157;-69
2020/12/05 10:40:37;;;;;;;11.12;4.90;;;;;;;14.31;55.24;97765.47;1735547;82;21578;-66
2020/12/05 10:43:05;;;;;;;8.20;3.98;;;;;;;14.62;54.77;97767.13;1735438;82;21241;-69
2020/12/05 10:45:34;;;;;;;9.25;3.80;;;;;;;14.64;54.43;97765.63;1735552;82;21186;-67
2020/12/05 10:48:02;;;;;;;8.80;4.17;;;;;;;14.89;54.26;97759.76;1735704;82;21193;-69
2020/12/05 10:50:30;;;;;;;9.88;4.12;;;;;;;14.98;53.57;97754.80;1710934;82;21144;-70
2020/12/05 10:52:57;;;;;;;10.03;4.58;;;;;;;15.67;52.61;97757.63;1736091;82;21121;-67
2020/12/05 10:55:25;;;;;;;8.70;4.67;;;;;;;15.53;51.82;97747.45;1735305;82;21532;-67
2020/12/05 10:58:01;;;;;;;;;;;;;;;16.10;50.73;97752.08;1738187;81;21134;-67
2020/12/05 11:00:29;;;;;;;7.78;4.47;;;;;;;16.19;50.12;97750.96;1735692;82;20123;-68
2020/12/05 11:02:57;;;;;;;6.25;3.92;;;;;;;16.07;50.34;97744.56;1735598;82;21237;-67
2020/12/05 11:05:24;;;;;;;7.95;4.30;;;;;;;16.41;49.64;97743.98;1735575;81;21183;-69
2020/12/05 11:07:52;;;;;;;5.40;3.87;;;;;;;16.51;49.47;97751.85;1735585;82;21214;-67
2020/12/05 11:10:20;;;;;;;6.30;3.40;;;;;;;16.75;49.59;97752.53;1711033;83;21607;-70
2020/12/05 11:12:48;;;;;;;8.38;3.37;;;;;;;16.72;47.69;97743.73;1735673;82;21170;-71
2020/12/05 11:15:16;;;;;;;6.67;3.80;;;;;;;16.92;47.98;97739.00;1735862;82;21138;-69
2020/12/05 11:17:44;;;;;;;5.37;2.95;;;;;;;16.54;48.31;97746.73;1731789;82;21158;-71
2020/12/05 11:20:12;;;;;;;4.42;2.75;;;;;;;17.21;47.18;97740.65;1727662;82;21656;-71
2020/12/05 11:22:41;;;;;;;7.00;3.30;;;;;;;17.29;45.99;97743.14;1727471;82;21154;-71
2020/12/05 11:25:09;;;;;;;4.08;3.35;;;;;;;17.66;45.81;97753.03;1727766;82;21199;-71
2020/12/05 11:27:36;;;;;;;5.67;3.55;;;;;;;17.25;46.31;97746.33;1727579;82;21607;-71
2020/12/05 11:30:04;;;;;;;5.12;3.47;;;;;;;17.41;45.72;97754.74;1727514;82;21159;-71
2020/12/05 11:32:32;;;;;;;4.45;2.90;;;;;;;17.46;45.10;97708.23;1727661;82;21627;-71
2020/12/05 11:35:00;;;;;;;4.17;2.90;;;;;;;18.12;44.85;97746.22;1727614;82;21151;-71
2020/12/05 11:37:28;;;;;;;5.08;2.83;;;;;;;18.11;44.39;97739.33;1727482;82;21234;-71
2020/12/05 11:39:56;;;;;;;5.30;2.87;;;;;;;18.27;43.77;97741.63;1727629;82;21177;-71
2020/12/05 11:42:32;;;;;;;4.85;3.50;;;;;;;18.77;43.14;97734.31;1727575;82;21218;-71
2020/12/05 11:45:03;;;;;;;6.83;3.67;;;;;;;18.41;43.26;97731.45;1727776;82;21635;-71
2020/12/05 11:47:31;;;;;;;6.20;4.17;;;;;;;18.80;42.49;97733.91;1727669;82;21591;-71
2020/12/05 11:49:59;;;;;;;5.12;3.35;;;;;;;18.58;43.04;97735.08;1727615;82;21639;-71
2020/12/05 11:52:27;;;;;;;6.53;2.72;;;;;;;18.44;43.19;97728.43;1727543;82;21603;-71
2020/12/05 11:54:56;;;;;;;5.53;2.83;;;;;;;18.30;43.03;97732.53;1727636;82;21648;-71
2020/12/05 11:57:24;;;;;;;7.70;3.75;;;;;;;18.80;42.87;97727.33;1727611;82;21597;-71
2020/12/05 11:59:52;;;;;;;6.67;3.35;;;;;;;18.67;42.82;97731.27;1727671;82;21235;-72
2020/12/05 12:02:20;;;;;;;6.67;2.85;;;;;;;18.57;43.57;97728.19;1727648;82;21182;-71
2020/12/05 12:04:48;;;;;;;6.15;2.72;;;;;;;18.66;43.01;97727.83;1727609;82;21171;-71